sensor_id;sensor_type;location;lat;lon;timestamp;temperature;humidity
11491;DHT22;5802;52.832;4.758;2023-07-30T00:00:57;24.90;57.50
11491;DHT22;5802;52.832;4.758;2023-07-30T00:03:24;24.90;57.50
11491;DHT22;5802;52.832;4.758;2023-07-30T00:05:55;24.90;57.50
11491;DHT22;5802;52.832;4.758;2023-07-30T00:08:22;24.90;57.60
11491;DHT22;5802;52.832;4.758;2023-07-30T00:10:49;24.90;57.60
11491;DHT22;5802;52.832;4.758;2023-07-30T00:13:15;24.90;57.60
11491;DHT22;5802;52.832;4.758;2023-07-30T00:15:42;24.90;57.90
11491;DHT22;5802;52.832;4.758;2023-07-30T00:18:11;24.90;57.60
11491;DHT22;5802;52.832;4.758;2023-07-30T00:20:38;24.90;57.60
11491;DHT22;5802;52.832;4.758;2023-07-30T00:23:06;24.90;57.60
11491;DHT22;5802;52.832;4.758;2023-07-30T00:25:33;24.90;57.60
11491;DHT22;5802;52.832;4.758;2023-07-30T00:27:59;24.90;57.60
11491;DHT22;5802;52.832;4.758;2023-07-30T00:30:26;24.90;57.60
11491;DHT22;5802;52.832;4.758;2023-07-30T00:32:52;24.90;57.60
11491;DHT22;5802;52.832;4.758;2023-07-30T00:35:19;24.90;57.60
11491;DHT22;5802;52.832;4.758;2023-07-30T00:37:46;24.90;57.60
11491;DHT22;5802;52.832;4.758;2023-07-30T00:40:14;24.90;57.60
11491;DHT22;5802;52.832;4.758;2023-07-30T00:42:41;24.80;57.60
11491;DHT22;5802;52.832;4.758;2023-07-30T00:45:09;24.80;57.50
11491;DHT22;5802;52.832;4.758;2023-07-30T00:47:37;24.80;57.60
11491;DHT22;5802;52.832;4.758;2023-07-30T00:50:05;24.80;57.60
11491;DHT22;5802;52.832;4.758;2023-07-30T00:52:32;24.80;57.60
11491;DHT22;5802;52.832;4.758;2023-07-30T00:55:01;24.80;57.60
11491;DHT22;5802;52.832;4.758;2023-07-30T00:57:30;24.80;57.60
11491;DHT22;5802;52.832;4.758;2023-07-30T00:59:57;24.80;57.60
11491;DHT22;5802;52.832;4.758;2023-07-30T01:02:25;24.80;57.70
11491;DHT22;5802;52.832;4.758;2023-07-30T01:04:53;24.80;57.70
11491;DHT22;5802;52.832;4.758;2023-07-30T01:07:20;24.80;57.60
11491;DHT22;5802;52.832;4.758;2023-07-30T01:09:47;24.80;57.60
11491;DHT22;5802;52.832;4.758;2023-07-30T01:12:14;24.70;57.60
11491;DHT22;5802;52.832;4.758;2023-07-30T01:14:43;24.70;57.50
11491;DHT22;5802;52.832;4.758;2023-07-30T01:17:11;24.70;57.60
11491;DHT22;5802;52.832;4.758;2023-07-30T01:19:38;24.70;57.60
11491;DHT22;5802;52.832;4.758;2023-07-30T01:22:06;24.70;57.50
11491;DHT22;5802;52.832;4.758;2023-07-30T01:24:32;24.70;57.50
11491;DHT22;5802;52.832;4.758;2023-07-30T01:27:02;24.70;57.50
11491;DHT22;5802;52.832;4.758;2023-07-30T01:29:36;24.70;58.20
11491;DHT22;5802;52.832;4.758;2023-07-30T01:32:07;24.70;57.50
11491;DHT22;5802;52.832;4.758;2023-07-30T01:34:35;24.70;57.50
11491;DHT22;5802;52.832;4.758;2023-07-30T01:37:06;24.70;57.60
11491;DHT22;5802;52.832;4.758;2023-07-30T01:39:36;24.70;57.60
11491;DHT22;5802;52.832;4.758;2023-07-30T01:42:04;24.70;57.50
11491;DHT22;5802;52.832;4.758;2023-07-30T01:44:31;24.70;57.50
11491;DHT22;5802;52.832;4.758;2023-07-30T01:46:58;24.70;57.50
11491;DHT22;5802;52.832;4.758;2023-07-30T01:49:24;24.70;57.60
11491;DHT22;5802;52.832;4.758;2023-07-30T01:51:51;24.70;57.50
11491;DHT22;5802;52.832;4.758;2023-07-30T01:54:19;24.70;57.50
11491;DHT22;5802;52.832;4.758;2023-07-30T01:56:45;24.70;57.50
11491;DHT22;5802;52.832;4.758;2023-07-30T01:59:12;24.60;57.50
11491;DHT22;5802;52.832;4.758;2023-07-30T02:01:40;24.60;57.50
11491;DHT22;5802;52.832;4.758;2023-07-30T02:04:07;24.70;57.50
11491;DHT22;5802;52.832;4.758;2023-07-30T02:06:33;24.60;57.50
11491;DHT22;5802;52.832;4.758;2023-07-30T02:09:00;24.60;57.50
11491;DHT22;5802;52.832;4.758;2023-07-30T02:11:28;24.60;57.50
11491;DHT22;5802;52.832;4.758;2023-07-30T02:13:55;24.60;57.50
11491;DHT22;5802;52.832;4.758;2023-07-30T02:16:21;24.60;57.50
11491;DHT22;5802;52.832;4.758;2023-07-30T02:18:48;24.60;57.50
11491;DHT22;5802;52.832;4.758;2023-07-30T02:21:14;24.60;57.50
11491;DHT22;5802;52.832;4.758;2023-07-30T02:23:41;24.60;57.50
11491;DHT22;5802;52.832;4.758;2023-07-30T02:26:08;24.60;57.40
11491;DHT22;5802;52.832;4.758;2023-07-30T02:28:36;24.60;57.40
11491;DHT22;5802;52.832;4.758;2023-07-30T02:31:03;24.50;57.40
11491;DHT22;5802;52.832;4.758;2023-07-30T02:33:29;24.60;57.50
11491;DHT22;5802;52.832;4.758;2023-07-30T02:35:56;24.50;57.40
11491;DHT22;5802;52.832;4.758;2023-07-30T02:38:23;24.50;58.00
11491;DHT22;5802;52.832;4.758;2023-07-30T02:40:49;24.50;57.40
11491;DHT22;5802;52.832;4.758;2023-07-30T02:43:19;24.50;57.30
11491;DHT22;5802;52.832;4.758;2023-07-30T02:45:48;24.50;57.30
11491;DHT22;5802;52.832;4.758;2023-07-30T02:48:15;24.50;57.30
11491;DHT22;5802;52.832;4.758;2023-07-30T02:50:42;24.50;57.30
11491;DHT22;5802;52.832;4.758;2023-07-30T02:53:08;24.50;57.30
11491;DHT22;5802;52.832;4.758;2023-07-30T02:55:35;24.50;57.30
11491;DHT22;5802;52.832;4.758;2023-07-30T02:58:02;24.50;57.30
11491;DHT22;5802;52.832;4.758;2023-07-30T03:00:28;24.50;57.30
11491;DHT22;5802;52.832;4.758;2023-07-30T03:02:56;24.50;57.30
11491;DHT22;5802;52.832;4.758;2023-07-30T03:05:23;24.50;57.30
11491;DHT22;5802;52.832;4.758;2023-07-30T03:07:50;24.50;57.40
11491;DHT22;5802;52.832;4.758;2023-07-30T03:10:16;24.50;57.30
11491;DHT22;5802;52.832;4.758;2023-07-30T03:12:43;24.50;57.30
11491;DHT22;5802;52.832;4.758;2023-07-30T03:15:10;24.50;57.30
11491;DHT22;5802;52.832;4.758;2023-07-30T03:17:37;24.40;57.20
11491;DHT22;5802;52.832;4.758;2023-07-30T03:20:06;24.40;57.20
11491;DHT22;5802;52.832;4.758;2023-07-30T03:22:34;24.40;57.20
11491;DHT22;5802;52.832;4.758;2023-07-30T03:25:00;24.40;57.80
11491;DHT22;5802;52.832;4.758;2023-07-30T03:27:27;24.40;57.20
11491;DHT22;5802;52.832;4.758;2023-07-30T03:29:54;24.40;57.20
11491;DHT22;5802;52.832;4.758;2023-07-30T03:32:20;24.40;57.20
11491;DHT22;5802;52.832;4.758;2023-07-30T03:34:47;24.40;57.20
11491;DHT22;5802;52.832;4.758;2023-07-30T03:37:15;24.40;57.20
11491;DHT22;5802;52.832;4.758;2023-07-30T03:39:42;24.40;57.20
11491;DHT22;5802;52.832;4.758;2023-07-30T03:42:08;24.30;57.10
11491;DHT22;5802;52.832;4.758;2023-07-30T03:44:35;24.40;57.20
11491;DHT22;5802;52.832;4.758;2023-07-30T03:47:02;24.40;57.80
11491;DHT22;5802;52.832;4.758;2023-07-30T03:49:28;24.40;57.20
11491;DHT22;5802;52.832;4.758;2023-07-30T03:51:55;24.40;57.20
11491;DHT22;5802;52.832;4.758;2023-07-30T03:54:23;24.30;57.10
11491;DHT22;5802;52.832;4.758;2023-07-30T03:56:50;24.30;57.10
11491;DHT22;5802;52.832;4.758;2023-07-30T03:59:16;24.30;57.00
11491;DHT22;5802;52.832;4.758;2023-07-30T04:01:43;24.30;57.00
11491;DHT22;5802;52.832;4.758;2023-07-30T04:04:10;24.30;57.00
11491;DHT22;5802;52.832;4.758;2023-07-30T04:06:36;24.30;57.70
11491;DHT22;5802;52.832;4.758;2023-07-30T04:09:03;24.30;57.00
11491;DHT22;5802;52.832;4.758;2023-07-30T04:11:31;24.30;57.00
11491;DHT22;5802;52.832;4.758;2023-07-30T04:13:58;24.30;57.00
11491;DHT22;5802;52.832;4.758;2023-07-30T04:16:24;24.30;57.00
11491;DHT22;5802;52.832;4.758;2023-07-30T04:18:51;24.30;56.90
11491;DHT22;5802;52.832;4.758;2023-07-30T04:21:17;24.30;57.00
11491;DHT22;5802;52.832;4.758;2023-07-30T04:23:44;24.30;56.90
11491;DHT22;5802;52.832;4.758;2023-07-30T04:26:11;24.30;56.90
11491;DHT22;5802;52.832;4.758;2023-07-30T04:28:39;24.30;57.00
11491;DHT22;5802;52.832;4.758;2023-07-30T04:31:06;24.30;56.90
11491;DHT22;5802;52.832;4.758;2023-07-30T04:33:33;24.30;56.90
11491;DHT22;5802;52.832;4.758;2023-07-30T04:36:00;24.30;56.90
11491;DHT22;5802;52.832;4.758;2023-07-30T04:38:27;24.30;56.90
11491;DHT22;5802;52.832;4.758;2023-07-30T04:40:57;24.30;56.90
11491;DHT22;5802;52.832;4.758;2023-07-30T04:43:24;24.20;56.80
11491;DHT22;5802;52.832;4.758;2023-07-30T04:45:52;24.20;56.80
11491;DHT22;5802;52.832;4.758;2023-07-30T04:48:19;24.20;56.80
11491;DHT22;5802;52.832;4.758;2023-07-30T04:50:45;24.20;56.80
11491;DHT22;5802;52.832;4.758;2023-07-30T04:53:12;24.20;56.80
11491;DHT22;5802;52.832;4.758;2023-07-30T04:55:39;24.20;56.80
11491;DHT22;5802;52.832;4.758;2023-07-30T04:58:05;24.30;56.90
11491;DHT22;5802;52.832;4.758;2023-07-30T05:00:32;24.20;56.80
11491;DHT22;5802;52.832;4.758;2023-07-30T05:03:00;24.20;56.80
11491;DHT22;5802;52.832;4.758;2023-07-30T05:05:27;24.20;56.80
11491;DHT22;5802;52.832;4.758;2023-07-30T05:07:53;24.20;56.70
11491;DHT22;5802;52.832;4.758;2023-07-30T05:10:20;24.20;56.70
11491;DHT22;5802;52.832;4.758;2023-07-30T05:12:47;24.20;56.70
11491;DHT22;5802;52.832;4.758;2023-07-30T05:15:13;24.20;56.70
11491;DHT22;5802;52.832;4.758;2023-07-30T05:17:40;24.20;56.70
11491;DHT22;5802;52.832;4.758;2023-07-30T05:20:09;24.20;56.60
11491;DHT22;5802;52.832;4.758;2023-07-30T05:22:36;24.20;56.60
11491;DHT22;5802;52.832;4.758;2023-07-30T05:25:03;24.20;56.70
11491;DHT22;5802;52.832;4.758;2023-07-30T05:27:30;24.20;56.60
11491;DHT22;5802;52.832;4.758;2023-07-30T05:29:57;24.20;56.60
11491;DHT22;5802;52.832;4.758;2023-07-30T05:32:25;24.20;56.60
11491;DHT22;5802;52.832;4.758;2023-07-30T05:34:51;24.20;56.60
11491;DHT22;5802;52.832;4.758;2023-07-30T05:37:19;24.20;56.50
11491;DHT22;5802;52.832;4.758;2023-07-30T05:39:45;24.20;56.50
11491;DHT22;5802;52.832;4.758;2023-07-30T05:42:12;24.20;56.50
11491;DHT22;5802;52.832;4.758;2023-07-30T05:44:38;24.20;56.50
11491;DHT22;5802;52.832;4.758;2023-07-30T05:47:05;24.20;56.50
11491;DHT22;5802;52.832;4.758;2023-07-30T05:49:32;24.20;56.50
11491;DHT22;5802;52.832;4.758;2023-07-30T05:51:58;24.20;56.50
11491;DHT22;5802;52.832;4.758;2023-07-30T05:54:26;24.20;56.40
11491;DHT22;5802;52.832;4.758;2023-07-30T05:56:53;24.20;56.40
11491;DHT22;5802;52.832;4.758;2023-07-30T05:59:20;24.20;56.30
11491;DHT22;5802;52.832;4.758;2023-07-30T06:01:46;24.20;56.30
11491;DHT22;5802;52.832;4.758;2023-07-30T06:04:13;24.20;56.30
11491;DHT22;5802;52.832;4.758;2023-07-30T06:06:40;24.20;56.30
11491;DHT22;5802;52.832;4.758;2023-07-30T06:09:06;24.20;56.80
11491;DHT22;5802;52.832;4.758;2023-07-30T06:11:35;24.20;56.80
11491;DHT22;5802;52.832;4.758;2023-07-30T06:14:01;24.20;56.20
11491;DHT22;5802;52.832;4.758;2023-07-30T06:16:28;24.20;56.20
11491;DHT22;5802;52.832;4.758;2023-07-30T06:18:54;24.20;56.20
11491;DHT22;5802;52.832;4.758;2023-07-30T06:21:21;24.20;56.20
11491;DHT22;5802;52.832;4.758;2023-07-30T06:23:48;24.20;56.10
11491;DHT22;5802;52.832;4.758;2023-07-30T06:26:14;24.20;56.10
11491;DHT22;5802;52.832;4.758;2023-07-30T06:28:42;24.20;56.10
11491;DHT22;5802;52.832;4.758;2023-07-30T06:31:09;24.20;56.00
11491;DHT22;5802;52.832;4.758;2023-07-30T06:33:36;24.20;56.00
11491;DHT22;5802;52.832;4.758;2023-07-30T06:36:04;24.20;56.00
11491;DHT22;5802;52.832;4.758;2023-07-30T06:38:30;24.20;56.00
11491;DHT22;5802;52.832;4.758;2023-07-30T06:40:57;24.20;56.00
11491;DHT22;5802;52.832;4.758;2023-07-30T06:43:24;24.20;56.00
11491;DHT22;5802;52.832;4.758;2023-07-30T06:45:52;24.20;56.00
11491;DHT22;5802;52.832;4.758;2023-07-30T06:48:19;24.20;56.00
11491;DHT22;5802;52.832;4.758;2023-07-30T06:50:46;24.20;56.00
11491;DHT22;5802;52.832;4.758;2023-07-30T06:53:12;24.30;56.00
11491;DHT22;5802;52.832;4.758;2023-07-30T06:55:39;24.30;56.00
11491;DHT22;5802;52.832;4.758;2023-07-30T06:58:06;24.30;55.90
11491;DHT22;5802;52.832;4.758;2023-07-30T07:00:32;24.30;55.90
11491;DHT22;5802;52.832;4.758;2023-07-30T07:03:00;24.30;55.80
11491;DHT22;5802;52.832;4.758;2023-07-30T07:05:30;24.30;55.80
11491;DHT22;5802;52.832;4.758;2023-07-30T07:07:57;24.30;55.80
11491;DHT22;5802;52.832;4.758;2023-07-30T07:10:23;24.30;55.80
11491;DHT22;5802;52.832;4.758;2023-07-30T07:12:50;24.30;55.80
11491;DHT22;5802;52.832;4.758;2023-07-30T07:15:17;24.30;55.70
11491;DHT22;5802;52.832;4.758;2023-07-30T07:17:44;24.30;55.80
11491;DHT22;5802;52.832;4.758;2023-07-30T07:20:12;24.30;55.70
11491;DHT22;5802;52.832;4.758;2023-07-30T07:22:39;24.30;55.70
11491;DHT22;5802;52.832;4.758;2023-07-30T07:25:06;24.30;55.70
11491;DHT22;5802;52.832;4.758;2023-07-30T07:27:33;24.20;55.70
11491;DHT22;5802;52.832;4.758;2023-07-30T07:29:59;24.20;55.70
11491;DHT22;5802;52.832;4.758;2023-07-30T07:32:27;24.30;57.50
11491;DHT22;5802;52.832;4.758;2023-07-30T07:34:53;24.20;56.20
11491;DHT22;5802;52.832;4.758;2023-07-30T07:37:21;24.30;55.90
11491;DHT22;5802;52.832;4.758;2023-07-30T07:39:48;24.30;55.90
11491;DHT22;5802;52.832;4.758;2023-07-30T07:42:15;24.30;56.40
11491;DHT22;5802;52.832;4.758;2023-07-30T07:44:41;24.30;59.00
11491;DHT22;5802;52.832;4.758;2023-07-30T07:47:11;24.30;55.90
11491;DHT22;5802;52.832;4.758;2023-07-30T07:49:38;24.30;55.90
11491;DHT22;5802;52.832;4.758;2023-07-30T07:52:05;24.30;55.40
11491;DHT22;5802;52.832;4.758;2023-07-30T07:54:33;24.30;55.50
11491;DHT22;5802;52.832;4.758;2023-07-30T07:57:00;24.30;55.50
11491;DHT22;5802;52.832;4.758;2023-07-30T07:59:27;24.40;55.40
11491;DHT22;5802;52.832;4.758;2023-07-30T08:01:54;24.50;55.40
11491;DHT22;5802;52.832;4.758;2023-07-30T08:04:20;24.50;55.40
11491;DHT22;5802;52.832;4.758;2023-07-30T08:06:47;24.50;55.40
11491;DHT22;5802;52.832;4.758;2023-07-30T08:09:14;24.50;55.40
11491;DHT22;5802;52.832;4.758;2023-07-30T08:11:42;24.50;55.30
11491;DHT22;5802;52.832;4.758;2023-07-30T08:14:09;24.60;55.30
11491;DHT22;5802;52.832;4.758;2023-07-30T08:16:35;24.60;55.20
11491;DHT22;5802;52.832;4.758;2023-07-30T08:19:02;24.60;55.20
11491;DHT22;5802;52.832;4.758;2023-07-30T08:21:29;24.70;55.20
11491;DHT22;5802;52.832;4.758;2023-07-30T08:23:55;24.70;55.10
11491;DHT22;5802;52.832;4.758;2023-07-30T08:26:22;24.70;55.10
11491;DHT22;5802;52.832;4.758;2023-07-30T08:28:50;24.70;55.00
11491;DHT22;5802;52.832;4.758;2023-07-30T08:31:17;24.70;55.00
11491;DHT22;5802;52.832;4.758;2023-07-30T08:33:43;24.80;54.90
11491;DHT22;5802;52.832;4.758;2023-07-30T08:36:10;24.80;54.80
11491;DHT22;5802;52.832;4.758;2023-07-30T08:38:37;24.90;54.80
11491;DHT22;5802;52.832;4.758;2023-07-30T08:41:03;24.90;54.70
11491;DHT22;5802;52.832;4.758;2023-07-30T08:43:30;25.00;55.20
11491;DHT22;5802;52.832;4.758;2023-07-30T08:45:59;25.00;54.50
11491;DHT22;5802;52.832;4.758;2023-07-30T08:48:26;25.10;54.50
11491;DHT22;5802;52.832;4.758;2023-07-30T08:50:56;25.10;54.40
11491;DHT22;5802;52.832;4.758;2023-07-30T08:53:24;25.10;54.30
11491;DHT22;5802;52.832;4.758;2023-07-30T08:55:52;25.10;54.20
11491;DHT22;5802;52.832;4.758;2023-07-30T08:58:20;25.10;54.20
11491;DHT22;5802;52.832;4.758;2023-07-30T09:00:49;25.20;54.20
11491;DHT22;5802;52.832;4.758;2023-07-30T09:03:18;25.20;54.20
11491;DHT22;5802;52.832;4.758;2023-07-30T09:05:46;25.20;54.10
11491;DHT22;5802;52.832;4.758;2023-07-30T09:08:14;25.30;54.20
11491;DHT22;5802;52.832;4.758;2023-07-30T09:10:41;25.30;54.10
11491;DHT22;5802;52.832;4.758;2023-07-30T09:13:08;25.30;54.00
11491;DHT22;5802;52.832;4.758;2023-07-30T09:15:36;25.30;53.90
11491;DHT22;5802;52.832;4.758;2023-07-30T09:18:04;25.30;53.90
11491;DHT22;5802;52.832;4.758;2023-07-30T09:20:38;25.40;53.80
11491;DHT22;5802;52.832;4.758;2023-07-30T09:23:06;25.40;53.40
11491;DHT22;5802;52.832;4.758;2023-07-30T09:25:33;25.40;53.30
11491;DHT22;5802;52.832;4.758;2023-07-30T09:27:59;25.50;53.40
11491;DHT22;5802;52.832;4.758;2023-07-30T09:30:27;25.50;53.30
11491;DHT22;5802;52.832;4.758;2023-07-30T09:32:54;25.50;53.20
11491;DHT22;5802;52.832;4.758;2023-07-30T09:35:22;25.60;53.30
11491;DHT22;5802;52.832;4.758;2023-07-30T09:37:58;25.60;53.00
11491;DHT22;5802;52.832;4.758;2023-07-30T09:40:31;25.60;52.80
11491;DHT22;5802;52.832;4.758;2023-07-30T09:42:58;25.60;52.80
11491;DHT22;5802;52.832;4.758;2023-07-30T09:45:25;25.60;52.80
11491;DHT22;5802;52.832;4.758;2023-07-30T09:47:54;25.60;52.10
11491;DHT22;5802;52.832;4.758;2023-07-30T09:50:21;25.60;51.80
11491;DHT22;5802;52.832;4.758;2023-07-30T09:52:50;25.60;51.40
11491;DHT22;5802;52.832;4.758;2023-07-30T09:55:17;25.60;51.30
11491;DHT22;5802;52.832;4.758;2023-07-30T09:57:45;25.60;51.20
11491;DHT22;5802;52.832;4.758;2023-07-30T10:00:12;25.60;51.00
11491;DHT22;5802;52.832;4.758;2023-07-30T10:02:44;25.60;50.90
11491;DHT22;5802;52.832;4.758;2023-07-30T10:05:15;25.60;51.00
11491;DHT22;5802;52.832;4.758;2023-07-30T10:07:46;25.60;51.20
11491;DHT22;5802;52.832;4.758;2023-07-30T10:10:15;25.60;51.20
11491;DHT22;5802;52.832;4.758;2023-07-30T10:12:43;25.60;51.10
11491;DHT22;5802;52.832;4.758;2023-07-30T10:15:10;25.50;51.00
11491;DHT22;5802;52.832;4.758;2023-07-30T10:17:36;25.50;50.90
11491;DHT22;5802;52.832;4.758;2023-07-30T10:20:20;25.50;51.00
11491;DHT22;5802;52.832;4.758;2023-07-30T10:22:47;25.50;51.10
11491;DHT22;5802;52.832;4.758;2023-07-30T10:25:21;25.50;51.00
11491;DHT22;5802;52.832;4.758;2023-07-30T10:27:50;25.50;51.10
11491;DHT22;5802;52.832;4.758;2023-07-30T10:30:18;25.50;51.20
11491;DHT22;5802;52.832;4.758;2023-07-30T10:32:59;25.40;51.10
11491;DHT22;5802;52.832;4.758;2023-07-30T10:35:36;25.40;51.20
11491;DHT22;5802;52.832;4.758;2023-07-30T10:38:13;25.40;51.50
11491;DHT22;5802;52.832;4.758;2023-07-30T10:40:42;25.40;51.80
11491;DHT22;5802;52.832;4.758;2023-07-30T10:43:15;25.40;51.80
11491;DHT22;5802;52.832;4.758;2023-07-30T10:45:48;25.40;52.00
11491;DHT22;5802;52.832;4.758;2023-07-30T10:48:15;25.40;52.20
11491;DHT22;5802;52.832;4.758;2023-07-30T10:50:42;25.40;52.20
11491;DHT22;5802;52.832;4.758;2023-07-30T10:53:08;25.40;52.20
11491;DHT22;5802;52.832;4.758;2023-07-30T10:55:35;25.40;52.30
11491;DHT22;5802;52.832;4.758;2023-07-30T10:58:03;25.40;52.30
11491;DHT22;5802;52.832;4.758;2023-07-30T11:00:31;25.40;52.30
11491;DHT22;5802;52.832;4.758;2023-07-30T11:02:58;25.40;52.40
11491;DHT22;5802;52.832;4.758;2023-07-30T11:05:25;25.40;52.40
11491;DHT22;5802;52.832;4.758;2023-07-30T11:07:52;25.40;52.40
11491;DHT22;5802;52.832;4.758;2023-07-30T11:10:18;25.40;52.50
11491;DHT22;5802;52.832;4.758;2023-07-30T11:12:47;25.40;52.60
11491;DHT22;5802;52.832;4.758;2023-07-30T11:15:16;25.40;52.50
11491;DHT22;5802;52.832;4.758;2023-07-30T11:17:43;25.40;52.60
11491;DHT22;5802;52.832;4.758;2023-07-30T11:20:21;25.40;52.50
11491;DHT22;5802;52.832;4.758;2023-07-30T11:22:48;25.40;52.50
11491;DHT22;5802;52.832;4.758;2023-07-30T11:25:16;25.40;52.20
11491;DHT22;5802;52.832;4.758;2023-07-30T11:27:46;25.40;51.90
11491;DHT22;5802;52.832;4.758;2023-07-30T11:30:13;25.40;51.80
11491;DHT22;5802;52.832;4.758;2023-07-30T11:32:41;25.50;51.70
11491;DHT22;5802;52.832;4.758;2023-07-30T11:35:09;25.50;51.60
11491;DHT22;5802;52.832;4.758;2023-07-30T11:37:35;25.50;51.40
11491;DHT22;5802;52.832;4.758;2023-07-30T11:40:07;25.50;51.40
11491;DHT22;5802;52.832;4.758;2023-07-30T11:42:34;25.50;51.40
11491;DHT22;5802;52.832;4.758;2023-07-30T11:45:19;25.50;51.50
11491;DHT22;5802;52.832;4.758;2023-07-30T11:47:47;25.50;51.40
11491;DHT22;5802;52.832;4.758;2023-07-30T11:50:14;25.50;51.40
11491;DHT22;5802;52.832;4.758;2023-07-30T11:52:54;25.50;51.40
11491;DHT22;5802;52.832;4.758;2023-07-30T11:55:22;25.60;51.60
11491;DHT22;5802;52.832;4.758;2023-07-30T11:57:49;25.60;51.80
11491;DHT22;5802;52.832;4.758;2023-07-30T12:00:16;25.60;51.80
11491;DHT22;5802;52.832;4.758;2023-07-30T12:02:48;25.60;51.90
11491;DHT22;5802;52.832;4.758;2023-07-30T12:05:16;25.60;51.80
11491;DHT22;5802;52.832;4.758;2023-07-30T12:07:44;25.60;51.90
11491;DHT22;5802;52.832;4.758;2023-07-30T12:10:13;25.60;51.90
11491;DHT22;5802;52.832;4.758;2023-07-30T12:12:43;25.60;52.00
11491;DHT22;5802;52.832;4.758;2023-07-30T12:15:11;25.60;52.00
11491;DHT22;5802;52.832;4.758;2023-07-30T12:17:38;25.60;52.10
11491;DHT22;5802;52.832;4.758;2023-07-30T12:20:07;25.60;52.00
11491;DHT22;5802;52.832;4.758;2023-07-30T12:22:34;25.60;52.10
11491;DHT22;5802;52.832;4.758;2023-07-30T12:25:02;25.60;52.10
11491;DHT22;5802;52.832;4.758;2023-07-30T12:27:29;25.60;52.20
11491;DHT22;5802;52.832;4.758;2023-07-30T12:29:56;25.60;52.20
11491;DHT22;5802;52.832;4.758;2023-07-30T12:32:22;25.60;52.30
11491;DHT22;5802;52.832;4.758;2023-07-30T12:34:49;25.60;52.20
11491;DHT22;5802;52.832;4.758;2023-07-30T12:37:17;25.60;52.30
11491;DHT22;5802;52.832;4.758;2023-07-30T12:39:44;25.60;52.30
11491;DHT22;5802;52.832;4.758;2023-07-30T12:42:11;25.60;52.20
11491;DHT22;5802;52.832;4.758;2023-07-30T12:44:37;25.60;52.10
11491;DHT22;5802;52.832;4.758;2023-07-30T12:47:05;25.60;51.90
11491;DHT22;5802;52.832;4.758;2023-07-30T12:49:31;25.60;51.80
11491;DHT22;5802;52.832;4.758;2023-07-30T12:51:58;25.60;51.60
11491;DHT22;5802;52.832;4.758;2023-07-30T12:54:26;25.60;51.60
11491;DHT22;5802;52.832;4.758;2023-07-30T12:56:52;25.60;51.60
11491;DHT22;5802;52.832;4.758;2023-07-30T12:59:19;25.60;51.60
11491;DHT22;5802;52.832;4.758;2023-07-30T13:01:46;25.60;51.60
11491;DHT22;5802;52.832;4.758;2023-07-30T13:04:12;25.60;51.80
11491;DHT22;5802;52.832;4.758;2023-07-30T13:06:39;25.60;51.90
11491;DHT22;5802;52.832;4.758;2023-07-30T13:09:06;25.60;52.40
11491;DHT22;5802;52.832;4.758;2023-07-30T13:11:34;25.60;53.20
11491;DHT22;5802;52.832;4.758;2023-07-30T13:14:02;25.60;53.30
11491;DHT22;5802;52.832;4.758;2023-07-30T13:16:29;25.60;53.60
11491;DHT22;5802;52.832;4.758;2023-07-30T13:18:56;25.60;53.60
11491;DHT22;5802;52.832;4.758;2023-07-30T13:21:23;25.60;53.50
11491;DHT22;5802;52.832;4.758;2023-07-30T13:23:49;25.60;53.40
11491;DHT22;5802;52.832;4.758;2023-07-30T13:26:16;25.60;53.10
11491;DHT22;5802;52.832;4.758;2023-07-30T13:28:45;25.60;53.00
11491;DHT22;5802;52.832;4.758;2023-07-30T13:31:12;25.60;52.70
11491;DHT22;5802;52.832;4.758;2023-07-30T13:33:39;25.60;52.60
11491;DHT22;5802;52.832;4.758;2023-07-30T13:36:06;25.60;52.60
11491;DHT22;5802;52.832;4.758;2023-07-30T13:38:33;25.60;52.50
11491;DHT22;5802;52.832;4.758;2023-07-30T13:41:00;25.60;52.50
11491;DHT22;5802;52.832;4.758;2023-07-30T13:43:27;25.60;52.40
11491;DHT22;5802;52.832;4.758;2023-07-30T13:45:55;25.60;52.40
11491;DHT22;5802;52.832;4.758;2023-07-30T13:48:23;25.60;52.40
11491;DHT22;5802;52.832;4.758;2023-07-30T13:50:50;25.70;52.40
11491;DHT22;5802;52.832;4.758;2023-07-30T13:53:17;25.70;53.00
11491;DHT22;5802;52.832;4.758;2023-07-30T13:55:43;25.70;52.30
11491;DHT22;5802;52.832;4.758;2023-07-30T13:58:10;25.70;52.10
11491;DHT22;5802;52.832;4.758;2023-07-30T14:00:40;25.70;52.10
11491;DHT22;5802;52.832;4.758;2023-07-30T14:03:08;25.80;52.10
11491;DHT22;5802;52.832;4.758;2023-07-30T14:05:35;25.80;52.10
11491;DHT22;5802;52.832;4.758;2023-07-30T14:08:01;25.80;51.90
11491;DHT22;5802;52.832;4.758;2023-07-30T14:10:28;25.80;51.80
11491;DHT22;5802;52.832;4.758;2023-07-30T14:12:55;25.80;51.80
11491;DHT22;5802;52.832;4.758;2023-07-30T14:15:21;25.80;51.70
11491;DHT22;5802;52.832;4.758;2023-07-30T14:17:48;25.80;51.50
11491;DHT22;5802;52.832;4.758;2023-07-30T14:20:17;25.90;51.50
11491;DHT22;5802;52.832;4.758;2023-07-30T14:22:44;25.90;51.50
11491;DHT22;5802;52.832;4.758;2023-07-30T14:25:10;25.90;51.50
11491;DHT22;5802;52.832;4.758;2023-07-30T14:27:37;25.90;51.30
11491;DHT22;5802;52.832;4.758;2023-07-30T14:30:05;25.90;51.20
11491;DHT22;5802;52.832;4.758;2023-07-30T14:32:32;26.00;51.30
11491;DHT22;5802;52.832;4.758;2023-07-30T14:34:59;26.00;52.40
11491;DHT22;5802;52.832;4.758;2023-07-30T14:37:27;26.00;52.00
11491;DHT22;5802;52.832;4.758;2023-07-30T14:39:53;26.00;51.00
11491;DHT22;5802;52.832;4.758;2023-07-30T14:42:20;26.10;51.00
11491;DHT22;5802;52.832;4.758;2023-07-30T14:44:47;26.10;50.80
11491;DHT22;5802;52.832;4.758;2023-07-30T14:47:13;26.10;50.80
11491;DHT22;5802;52.832;4.758;2023-07-30T14:49:40;26.10;50.70
11491;DHT22;5802;52.832;4.758;2023-07-30T14:52:07;26.10;50.70
11491;DHT22;5802;52.832;4.758;2023-07-30T14:54:35;26.10;50.50
11491;DHT22;5802;52.832;4.758;2023-07-30T14:57:02;26.10;50.40
11491;DHT22;5802;52.832;4.758;2023-07-30T14:59:29;26.20;50.50
11491;DHT22;5802;52.832;4.758;2023-07-30T15:01:55;26.20;50.20
11491;DHT22;5802;52.832;4.758;2023-07-30T15:04:22;26.20;49.90
11491;DHT22;5802;52.832;4.758;2023-07-30T15:06:49;26.20;49.90
11491;DHT22;5802;52.832;4.758;2023-07-30T15:09:16;26.20;49.70
11491;DHT22;5802;52.832;4.758;2023-07-30T15:11:43;26.20;49.60
11491;DHT22;5802;52.832;4.758;2023-07-30T15:14:10;26.20;49.50
11491;DHT22;5802;52.832;4.758;2023-07-30T15:16:37;26.20;49.40
11491;DHT22;5802;52.832;4.758;2023-07-30T15:19:04;26.20;49.30
11491;DHT22;5802;52.832;4.758;2023-07-30T15:21:31;26.20;49.40
11491;DHT22;5802;52.832;4.758;2023-07-30T15:23:57;26.20;49.40
11491;DHT22;5802;52.832;4.758;2023-07-30T15:26:24;26.20;49.50
11491;DHT22;5802;52.832;4.758;2023-07-30T15:28:52;26.20;49.60
11491;DHT22;5802;52.832;4.758;2023-07-30T15:31:19;26.20;51.40
11491;DHT22;5802;52.832;4.758;2023-07-30T15:33:46;26.20;55.80
11491;DHT22;5802;52.832;4.758;2023-07-30T15:36:13;26.20;49.50
11491;DHT22;5802;52.832;4.758;2023-07-30T15:38:41;26.20;49.70
11491;DHT22;5802;52.832;4.758;2023-07-30T15:41:07;26.20;49.80
11491;DHT22;5802;52.832;4.758;2023-07-30T15:43:34;26.20;49.80
11491;DHT22;5802;52.832;4.758;2023-07-30T15:46:06;26.20;50.50